Dover, Delaware
Current Conditions -  °F | °C
As of 4:58 AM on Wednesday 26 Nov 2014 (Local Time) from KDOV Reporting Station
Light Rain Light Rain  
Wind Chill: 40°   Ceiling: 4200
Heat Index: 44°   Visibility: 9mi
Dew Point: 43°   Wind: 7mph
Humidity: 95%   Direction: 50°NE
Pressure: 30.06"   Gusts: NA
Location:  39.16°N, 75.52°W
Report Text: KDOV 260958Z AUTO 05006KT 9SM -RA BKN042 BKN055 07/06 A3006 RMK AO2 PRESFR SLP183 P0003 T00680060
Loading
Personal Weather Stations






























Interactive Weather Map New forecast layout! Learn more

10-Day Weather Forecast

Advertisements
Track Severe Weather on mobile